Terminal Aerodrome Forecast
Issued by NWS

Home | Current Version | Previous Version | Text Only | Print | Product List | Glossary On
Versions: 1 2 3 4 5 6 7 8 9 10 11 12
000
FTUS44 KLZK 221744
TAFBPK
TAF
KBPK 221744Z 2218/2318 21006KT P6SM SCT045 SCT100
     FM230000 20004KT P6SM SCT250
     FM231500 24006KT P6SM SCT040 BKN250=

USA.gov is the U.S. government's official web portal to all federal, state and local government web resources and services.